Time;durP1;ratioP1;P1;durP2;ratioP2;P2;SDS_P1;SDS_P2;PMS_P1;PMS_P2;Temp;Humidity;BMP_temperature;BMP_pressure;BME280_temperature;BME280_humidity;BME280_pressure;Samples;Min_cycle;Max_cycle;Signal;HPM_P1;HPM_P2
2021/04/17 00:02:01;;;;;;;1.77;1.10;;;22.80;27.70;;;;;;5029929;28;20486;-65
2021/04/17 00:04:30;;;;;;;2.17;1.40;;;22.80;27.70;;;;;;5030701;28;20406;-65
2021/04/17 00:06:56;;;;;;;1.60;1.10;;;22.80;27.80;;;;;;5031314;28;20456;-64
2021/04/17 00:09:25;;;;;;;1.55;1.17;;;22.80;27.80;;;;;;5031367;28;20386;-65
2021/04/17 00:11:52;;;;;;;1.70;1.20;;;22.70;27.80;;;;;;5034440;28;20379;-65
2021/04/17 00:14:21;;;;;;;1.80;1.30;;;22.70;27.80;;;;;;5035358;28;20391;-64
2021/04/17 00:16:48;;;;;;;1.58;1.10;;;22.70;27.80;;;;;;5034882;28;20382;-64
2021/04/17 00:19:13;;;;;;;1.60;1.30;;;22.70;27.90;;;;;;5035045;28;20449;-64
2021/04/17 00:21:39;;;;;;;1.70;1.20;;;22.70;27.70;;;;;;5035033;28;20411;-65
2021/04/17 00:24:06;;;;;;;1.33;1.03;;;22.60;27.90;;;;;;5035093;28;20379;-64
2021/04/17 00:26:33;;;;;;;1.47;1.10;;;22.60;27.90;;;;;;5034602;28;20483;-62
2021/04/17 00:28:59;;;;;;;1.60;1.10;;;22.60;27.90;;;;;;5034965;28;20387;-62
2021/04/17 00:31:25;;;;;;;1.50;1.10;;;22.60;27.90;;;;;;5035105;28;20459;-62
2021/04/17 00:33:51;;;;;;;1.80;1.23;;;22.60;27.80;;;;;;5034842;28;20883;-65
2021/04/17 00:36:17;;;;;;;1.57;1.17;;;22.50;27.80;;;;;;5034865;28;20433;-64
2021/04/17 00:38:42;;;;;;;1.42;1.10;;;22.50;27.90;;;;;;5034385;28;20387;-64
2021/04/17 00:41:08;;;;;;;1.80;1.30;;;22.50;28.00;;;;;;5034637;28;20469;-64
2021/04/17 00:43:34;;;;;;;1.50;1.20;;;22.50;28.00;;;;;;5034808;28;20394;-64
2021/04/17 00:46:00;;;;;;;1.60;1.20;;;22.40;28.00;;;;;;5034433;28;20902;-65
2021/04/17 00:48:26;;;;;;;1.40;1.00;;;22.40;28.00;;;;;;5033251;28;20444;-64
2021/04/17 00:50:52;;;;;;;1.58;1.00;;;22.40;28.00;;;;;;5034411;28;20462;-64
2021/04/17 00:53:18;;;;;;;1.70;1.13;;;22.40;28.10;;;;;;5034434;28;20391;-65
2021/04/17 00:55:44;;;;;;;1.50;1.00;;;22.30;28.10;;;;;;5034487;28;20425;-64
2021/04/17 00:58:10;;;;;;;1.50;1.10;;;22.30;28.20;;;;;;5034503;28;20426;-65
2021/04/17 01:00:37;;;;;;;1.40;1.03;;;22.30;28.10;;;;;;5034032;28;20418;-63
2021/04/17 01:03:14;;;;;;;1.77;1.10;;;22.30;28.10;;;;;;5034087;28;20399;-65
2021/04/17 01:05:41;;;;;;;1.42;1.02;;;22.30;28.20;;;;;;5034315;28;20399;-64
2021/04/17 01:08:31;;;;;;;1.50;1.10;;;22.20;28.30;;;;;;5034190;28;20387;-65
2021/04/17 01:11:01;;;;;;;1.50;1.17;;;22.20;28.20;;;;;;5033826;28;20410;-65
2021/04/17 01:13:27;;;;;;;1.58;1.30;;;22.20;28.20;;;;;;5034056;28;20446;-65
2021/04/17 01:15:54;;;;;;;1.63;1.10;;;22.10;28.00;;;;;;5043289;28;20391;-64
2021/04/17 01:18:23;;;;;;;1.98;1.20;;;22.10;28.70;;;;;;5041285;28;20462;-62
2021/04/17 01:20:55;;;;;;;1.70;1.20;;;22.10;28.50;;;;;;5041779;28;20406;-64
2021/04/17 01:23:40;;;;;;;1.58;1.20;;;22.10;28.60;;;;;;5043722;28;20914;-62
2021/04/17 01:26:12;;;;;;;1.53;1.20;;;22.10;28.70;;;;;;5041977;28;20456;-65
2021/04/17 01:28:41;;;;;;;1.90;1.30;;;22.10;28.70;;;;;;5041098;28;20890;-66
2021/04/17 01:31:10;;;;;;;1.88;1.33;;;22.00;28.60;;;;;;5042928;28;20865;-64
2021/04/17 01:33:40;;;;;;;1.85;1.10;;;22.00;28.70;;;;;;5032499;28;20390;-65
2021/04/17 01:36:06;;;;;;;1.83;1.25;;;22.00;28.60;;;;;;5033709;28;20391;-65
2021/04/17 01:38:37;;;;;;;2.47;1.20;;;22.00;28.60;;;;;;5033426;28;20399;-64
2021/04/17 01:41:08;;;;;;;2.30;1.17;;;21.90;28.50;;;;;;5033658;28;20414;-65
2021/04/17 01:43:35;;;;;;;2.40;1.20;;;21.90;28.50;;;;;;5034003;28;20414;-65
2021/04/17 01:46:07;;;;;;;2.05;1.15;;;21.90;28.50;;;;;;5033239;28;20415;-63
2021/04/17 01:48:34;;;;;;;1.60;1.00;;;21.90;28.50;;;;;;5033022;28;20390;-65
2021/04/17 01:51:00;;;;;;;2.15;1.30;;;21.90;28.60;;;;;;5033482;28;20387;-64
2021/04/17 01:53:30;;;;;;;1.70;1.20;;;21.80;28.50;;;;;;5033492;28;20875;-64
2021/04/17 01:55:58;;;;;;;1.70;1.10;;;21.80;28.50;;;;;;5033342;28;20402;-64
2021/04/17 01:58:27;;;;;;;1.73;1.20;;;21.80;28.50;;;;;;5033586;28;20449;-61
2021/04/17 02:00:55;;;;;;;2.20;0.90;;;21.80;28.50;;;;;;5032980;28;20506;-64
2021/04/17 02:03:21;;;;;;;2.50;1.30;;;21.70;28.50;;;;;;5033280;28;20419;-65
2021/04/17 02:05:49;;;;;;;1.40;0.98;;;21.70;28.50;;;;;;5033238;28;20521;-64
2021/04/17 02:08:14;;;;;;;1.42;1.00;;;21.70;28.50;;;;;;5033161;28;20732;-65
2021/04/17 02:10:40;;;;;;;1.70;1.00;;;21.70;28.50;;;;;;5032717;28;20414;-64
2021/04/17 02:13:07;;;;;;;2.00;1.15;;;21.70;28.50;;;;;;5033093;28;20399;-64
2021/04/17 02:15:36;;;;;;;1.35;1.05;;;21.70;28.50;;;;;;5033026;28;20387;-64
2021/04/17 02:18:25;;;;;;;1.75;1.30;;;21.60;28.50;;;;;;5033001;28;20474;-64
2021/04/17 02:20:57;;;;;;;1.48;1.17;;;21.60;28.50;;;;;;5031878;28;21387;-64
2021/04/17 02:23:24;;;;;;;1.48;1.10;;;21.60;28.50;;;;;;5033169;28;20448;-63
2021/04/17 02:25:50;;;;;;;1.50;1.00;;;21.60;28.60;;;;;;5032838;28;20882;-63
2021/04/17 02:28:16;;;;;;;1.30;1.00;;;21.60;28.60;;;;;;5032953;28;20455;-64
2021/04/17 02:30:42;;;;;;;1.65;1.10;;;21.60;28.60;;;;;;5032274;28;20395;-65
2021/04/17 02:33:07;;;;;;;1.10;0.80;;;21.50;28.60;;;;;;5031933;28;20399;-65
2021/04/17 02:35:33;;;;;;;1.20;0.90;;;21.50;28.60;;;;;;5032694;28;20868;-65
2021/04/17 02:37:59;;;;;;;1.30;0.93;;;21.50;28.60;;;;;;5032693;28;20457;-65
2021/04/17 02:40:25;;;;;;;1.48;1.08;;;21.50;28.60;;;;;;5032592;28;20478;-65
2021/04/17 02:42:51;;;;;;;1.45;0.90;;;21.40;28.60;;;;;;5032020;28;20977;-64
2021/04/17 02:45:16;;;;;;;1.30;1.10;;;21.40;28.60;;;;;;5031029;28;20517;-64
2021/04/17 02:47:42;;;;;;;1.85;1.10;;;21.50;28.70;;;;;;5032441;28;20395;-65
2021/04/17 02:50:08;;;;;;;1.50;1.10;;;21.40;28.60;;;;;;5032133;28;20441;-65
2021/04/17 02:52:34;;;;;;;1.60;1.10;;;21.40;28.60;;;;;;5031526;28;20388;-64
2021/04/17 02:55:00;;;;;;;1.50;1.08;;;21.40;28.70;;;;;;5032255;28;20888;-65
2021/04/17 02:57:25;;;;;;;1.65;1.10;;;21.30;28.60;;;;;;5032140;28;21115;-65
2021/04/17 02:59:51;;;;;;;1.37;0.90;;;21.30;28.70;;;;;;5032075;28;20387;-64
2021/04/17 03:02:17;;;;;;;1.55;1.10;;;21.30;28.70;;;;;;5032163;28;20457;-65
2021/04/17 03:04:42;;;;;;;1.27;0.90;;;21.30;28.60;;;;;;5031502;28;20771;-65
2021/04/17 03:07:08;;;;;;;1.85;1.10;;;21.30;28.70;;;;;;5032094;28;20399;-65
2021/04/17 03:09:33;;;;;;;1.42;0.90;;;21.30;28.70;;;;;;5032056;28;20395;-65
2021/04/17 03:11:59;;;;;;;1.80;1.10;;;21.30;28.70;;;;;;5031909;28;20487;-65
2021/04/17 03:14:25;;;;;;;1.38;1.10;;;21.20;28.70;;;;;;5031887;28;20431;-65
2021/04/17 03:16:51;;;;;;;1.30;1.10;;;21.20;28.70;;;;;;5031159;28;20431;-65
2021/04/17 03:19:16;;;;;;;1.30;1.05;;;21.20;28.70;;;;;;5031945;28;20410;-64
2021/04/17 03:21:42;;;;;;;1.50;1.00;;;21.10;28.70;;;;;;5030511;28;20923;-65
2021/04/17 03:24:08;;;;;;;1.80;1.20;;;21.20;28.70;;;;;;5031809;28;20406;-64
2021/04/17 03:26:33;;;;;;;1.50;1.10;;;21.20;28.80;;;;;;5031520;28;20396;-64
2021/04/17 03:28:59;;;;;;;1.57;1.10;;;21.10;28.60;;;;;;5031508;28;20387;-64
2021/04/17 03:31:25;;;;;;;1.50;1.05;;;21.10;28.70;;;;;;5031746;28;20395;-65
2021/04/17 03:33:51;;;;;;;1.50;1.10;;;21.10;28.70;;;;;;5031665;28;20405;-63
2021/04/17 03:36:16;;;;;;;1.70;1.30;;;21.10;28.70;;;;;;5031692;28;20482;-65
2021/04/17 03:38:42;;;;;;;2.47;1.10;;;21.00;28.70;;;;;;5031161;28;20383;-62
2021/04/17 03:41:07;;;;;;;1.30;1.00;;;21.00;28.70;;;;;;5031505;28;20450;-65
2021/04/17 03:43:34;;;;;;;1.42;1.10;;;21.00;28.70;;;;;;5031588;28;20452;-65
2021/04/17 03:45:59;;;;;;;1.38;1.10;;;21.00;28.70;;;;;;5031230;28;20415;-64
2021/04/17 03:48:25;;;;;;;1.53;1.10;;;21.00;28.70;;;;;;5030303;28;20421;-64
2021/04/17 03:50:51;;;;;;;1.60;1.20;;;21.00;28.80;;;;;;5030975;28;20430;-65
2021/04/17 03:53:17;;;;;;;1.25;1.10;;;20.90;28.70;;;;;;5031530;28;20900;-65
2021/04/17 03:55:42;;;;;;;1.60;1.20;;;20.90;28.80;;;;;;5031352;28;20399;-62
2021/04/17 03:58:08;;;;;;;1.48;1.20;;;20.90;28.80;;;;;;5031508;28;20397;-64
2021/04/17 04:00:34;;;;;;;1.30;1.00;;;20.90;29.30;;;;;;5031151;28;20455;-64
2021/04/17 04:03:00;;;;;;;1.50;1.07;;;20.90;28.90;;;;;;5031173;28;20390;-64
2021/04/17 04:05:26;;;;;;;1.58;0.90;;;20.90;28.90;;;;;;5031368;28;20901;-64
2021/04/17 04:07:52;;;;;;;1.30;1.07;;;20.90;28.90;;;;;;5031353;28;20383;-65
2021/04/17 04:10:18;;;;;;;1.50;1.10;;;20.90;28.90;;;;;;5031361;28;20879;-65
2021/04/17 04:12:44;;;;;;;1.77;0.98;;;20.80;28.80;;;;;;5030868;28;20418;-65
2021/04/17 04:15:12;;;;;;;1.40;1.10;;;20.80;28.80;;;;;;5031478;28;20425;-64
2021/04/17 04:17:38;;;;;;;1.30;0.90;;;20.80;28.80;;;;;;5031256;28;20475;-64
2021/04/17 04:20:05;;;;;;;1.42;1.10;;;20.80;28.80;;;;;;5031120;28;20493;-65
2021/04/17 04:22:35;;;;;;;1.50;1.10;;;20.80;28.90;;;;;;5030562;28;20402;-64
2021/04/17 04:25:02;;;;;;;1.77;1.20;;;20.80;28.90;;;;;;5030544;28;20482;-64
2021/04/17 04:27:28;;;;;;;2.47;1.60;;;20.70;28.80;;;;;;5031011;28;20764;-65
2021/04/17 04:29:53;;;;;;;2.13;1.50;;;20.70;28.80;;;;;;5029804;28;20387;-64
2021/04/17 04:32:19;;;;;;;2.25;1.50;;;20.70;28.80;;;;;;5030890;28;20395;-59
2021/04/17 04:34:45;;;;;;;2.47;1.40;;;20.70;28.80;;;;;;5030455;28;20394;-64
2021/04/17 04:37:10;;;;;;;1.70;1.30;;;20.70;28.80;;;;;;5030996;28;20383;-65
2021/04/17 04:39:36;;;;;;;1.67;1.27;;;20.70;28.90;;;;;;5031109;28;20391;-64
2021/04/17 04:42:02;;;;;;;2.60;1.53;;;20.60;28.90;;;;;;5030862;28;20419;-64
2021/04/17 04:44:27;;;;;;;2.15;1.50;;;20.60;28.90;;;;;;5029713;28;20477;-65
2021/04/17 04:46:53;;;;;;;2.20;1.50;;;20.60;29.00;;;;;;5030157;28;20500;-65
2021/04/17 04:49:19;;;;;;;2.30;1.60;;;20.60;29.00;;;;;;5030998;28;20804;-65
2021/04/17 04:51:44;;;;;;;2.93;1.80;;;20.60;28.90;;;;;;5030972;28;20388;-65
2021/04/17 04:54:10;;;;;;;6.75;3.92;;;20.60;28.90;;;;;;5030917;28;20867;-64
2021/04/17 04:56:35;;;;;;;8.83;5.20;;;20.60;28.90;;;;;;5031660;28;20395;-64
2021/04/17 04:59:01;;;;;;;10.73;6.47;;;20.60;29.00;;;;;;5034215;28;20859;-64
2021/04/17 05:01:27;;;;;;;9.13;5.60;;;20.50;28.90;;;;;;5034306;28;20999;-65
2021/04/17 05:03:53;;;;;;;5.17;3.30;;;20.60;29.00;;;;;;5034349;28;20816;-64
2021/04/17 05:06:18;;;;;;;4.80;3.30;;;20.60;29.10;;;;;;5034319;28;20453;-64
2021/04/17 05:08:44;;;;;;;5.03;3.22;;;20.70;29.10;;;;;;5033857;28;20433;-64
2021/04/17 05:11:10;;;;;;;5.17;3.20;;;20.70;29.00;;;;;;5034327;28;20395;-64
2021/04/17 05:13:36;;;;;;;5.35;3.10;;;20.80;28.90;;;;;;5034579;28;20746;-64
2021/04/17 05:16:01;;;;;;;5.40;3.40;;;20.90;28.90;;;;;;5034166;28;20403;-64
2021/04/17 05:18:27;;;;;;;4.93;2.70;;;20.90;28.80;;;;;;5034122;28;20383;-64
2021/04/17 05:20:53;;;;;;;4.93;2.90;;;20.90;28.90;;;;;;5032274;28;20877;-64
2021/04/17 05:23:18;;;;;;;4.80;3.03;;;20.90;28.80;;;;;;5033732;28;20541;-65
2021/04/17 05:25:44;;;;;;;4.57;2.75;;;21.00;28.90;;;;;;5033910;28;20399;-63
2021/04/17 05:28:11;;;;;;;4.53;2.70;;;21.00;28.90;;;;;;5034004;28;20419;-65
2021/04/17 05:30:37;;;;;;;4.47;2.80;;;21.00;28.90;;;;;;5033828;28;20390;-64
2021/04/17 05:33:03;;;;;;;4.00;2.67;;;21.00;28.80;;;;;;5033606;28;20453;-65
2021/04/17 05:35:29;;;;;;;4.53;2.90;;;21.00;28.80;;;;;;5033835;28;20426;-65
2021/04/17 05:37:54;;;;;;;4.72;3.08;;;21.00;28.80;;;;;;5033190;28;20406;-64
2021/04/17 05:40:20;;;;;;;4.20;2.80;;;21.10;28.80;;;;;;5033308;28;20433;-64
2021/04/17 05:42:46;;;;;;;4.63;3.10;;;21.10;28.70;;;;;;5033160;28;20440;-65
2021/04/17 05:45:12;;;;;;;5.03;2.90;;;21.10;28.70;;;;;;5033367;28;20493;-64
2021/04/17 05:47:38;;;;;;;5.43;2.75;;;21.20;28.70;;;;;;5033570;28;20474;-65
2021/04/17 05:50:04;;;;;;;4.23;2.47;;;21.10;28.70;;;;;;5033304;28;20486;-65
2021/04/17 05:52:30;;;;;;;3.75;2.50;;;21.10;28.40;;;;;;5033413;28;20438;-64
2021/04/17 05:54:56;;;;;;;4.90;2.50;;;21.10;28.40;;;;;;5033007;28;20427;-64
2021/04/17 05:57:21;;;;;;;3.85;2.30;;;21.10;28.70;;;;;;5033403;28;20410;-64
2021/04/17 05:59:47;;;;;;;4.30;2.37;;;21.10;28.80;;;;;;5033284;28;20395;-65
2021/04/17 06:02:13;;;;;;;4.07;2.40;;;21.10;28.80;;;;;;5033550;28;20405;-61
2021/04/17 06:04:39;;;;;;;7.40;2.25;;;21.10;28.80;;;;;;5033017;28;20400;-59
2021/04/17 06:07:04;;;;;;;4.70;2.20;;;21.10;28.90;;;;;;5032890;28;20474;-65
2021/04/17 06:09:30;;;;;;;4.05;2.28;;;21.10;28.90;;;;;;5032052;28;20945;-64
2021/04/17 06:11:57;;;;;;;3.30;2.20;;;21.10;29.00;;;;;;5015756;28;20734;-65
2021/04/17 06:14:22;;;;;;;3.25;2.03;;;21.00;28.90;;;;;;5052501;28;20393;-65
2021/04/17 06:16:48;;;;;;;3.63;2.23;;;21.00;28.90;;;;;;5052394;28;20385;-65
2021/04/17 06:19:13;;;;;;;4.75;2.10;;;21.00;28.90;;;;;;5052977;28;20747;-65
2021/04/17 06:21:39;;;;;;;3.70;2.13;;;21.00;29.00;;;;;;5052642;28;20410;-65
2021/04/17 06:24:05;;;;;;;3.55;2.25;;;21.00;29.00;;;;;;5052567;28;20477;-64
2021/04/17 06:26:31;;;;;;;2.80;1.90;;;21.00;29.00;;;;;;5052833;28;20476;-65
2021/04/17 06:28:57;;;;;;;3.30;2.00;;;21.00;29.00;;;;;;5052368;28;20462;-64
2021/04/17 06:31:23;;;;;;;3.70;2.15;;;21.00;28.90;;;;;;5053167;28;20443;-64
2021/04/17 06:33:50;;;;;;;4.10;2.07;;;21.00;29.10;;;;;;5052560;28;20393;-65
2021/04/17 06:36:16;;;;;;;3.88;2.15;;;20.90;29.10;;;;;;5052866;28;20396;-59
2021/04/17 06:38:41;;;;;;;3.58;1.90;;;21.00;29.20;;;;;;5052206;28;20785;-62
2021/04/17 06:41:07;;;;;;;4.07;1.80;;;21.00;29.60;;;;;;5052202;28;20416;-65
2021/04/17 06:43:39;;;;;;;3.42;1.80;;;20.90;29.70;;;;;;5052352;28;20385;-65
2021/04/17 06:46:05;;;;;;;3.40;1.80;;;21.00;29.50;;;;;;5052135;28;20475;-65
2021/04/17 06:48:32;;;;;;;4.60;1.80;;;21.10;29.40;;;;;;5052390;28;20765;-66
2021/04/17 06:50:59;;;;;;;3.67;1.90;;;21.10;29.30;;;;;;5051868;28;20389;-65
2021/04/17 06:53:27;;;;;;;4.05;2.10;;;21.10;29.20;;;;;;5052289;28;20389;-65
2021/04/17 06:55:53;;;;;;;3.65;2.10;;;21.10;30.20;;;;;;5052238;28;20385;-64
2021/04/17 06:58:20;;;;;;;6.00;2.77;;;21.10;30.20;;;;;;5052517;28;20385;-65
2021/04/17 07:00:49;;;;;;;4.63;3.00;;;21.20;30.60;;;;;;5051874;28;20420;-66
2021/04/17 07:03:16;;;;;;;8.32;3.40;;;21.30;30.80;;;;;;5051982;28;20392;-66
2021/04/17 07:05:41;;;;;;;5.78;3.17;;;21.40;31.40;;;;;;5051993;28;20381;-65
2021/04/17 07:08:07;;;;;;;5.20;3.30;;;21.60;30.50;;;;;;5051809;28;20390;-66
2021/04/17 07:10:33;;;;;;;6.60;3.40;;;21.70;30.80;;;;;;5051435;28;20450;-66
2021/04/17 07:13:14;;;;;;;4.55;2.75;;;21.70;31.10;;;;;;5051375;28;20382;-66
2021/04/17 07:15:41;;;;;;;4.20;2.60;;;21.70;31.00;;;;;;5051726;28;20435;-65
2021/04/17 07:18:33;;;;;;;7.13;2.53;;;21.70;30.40;;;;;;5051836;28;20468;-67
2021/04/17 07:21:19;;;;;;;6.35;2.50;;;21.70;30.50;;;;;;5049658;28;20421;-65
2021/04/17 07:23:47;;;;;;;3.90;2.60;;;21.80;30.80;;;;;;5051204;28;20827;-65
2021/04/17 07:26:20;;;;;;;6.87;2.50;;;21.80;30.40;;;;;;5050448;28;20401;-65
2021/04/17 07:28:55;;;;;;;5.07;2.10;;;21.80;30.50;;;;;;5050034;28;20813;-62
2021/04/17 07:31:22;;;;;;;6.18;2.53;;;21.80;30.10;;;;;;5051613;28;20404;-65
2021/04/17 07:33:48;;;;;;;4.93;2.20;;;21.70;30.30;;;;;;5051432;28;20389;-64
2021/04/17 07:36:15;;;;;;;4.43;2.00;;;21.60;29.90;;;;;;5050353;28;20397;-65
2021/04/17 07:38:42;;;;;;;2.97;2.03;;;21.60;29.70;;;;;;5051438;28;20386;-64
2021/04/17 07:41:09;;;;;;;3.35;2.03;;;21.60;29.70;;;;;;5050986;28;20539;-65
2021/04/17 07:44:02;;;;;;;4.53;1.80;;;21.50;29.70;;;;;;5051418;28;20394;-65
2021/04/17 07:46:43;;;;;;;4.05;2.22;;;21.50;29.60;;;;;;5051290;28;20413;-65
2021/04/17 07:49:11;;;;;;;3.47;1.87;;;21.50;29.50;;;;;;5050978;28;20439;-65
2021/04/17 07:52:13;;;;;;;3.47;1.80;;;21.50;29.40;;;;;;5050119;28;20405;-64
2021/04/17 07:54:56;;;;;;;3.45;2.00;;;21.50;29.40;;;;;;5051290;28;20389;-65
2021/04/17 07:57:30;;;;;;;3.22;1.90;;;21.50;29.40;;;;;;5051279;28;20417;-63
2021/04/17 07:59:56;;;;;;;4.50;1.80;;;21.50;29.70;;;;;;5051213;28;20424;-65
2021/04/17 08:02:24;;;;;;;4.15;1.70;;;21.50;29.60;;;;;;5049982;28;20418;-63
2021/04/17 08:04:50;;;;;;;3.20;1.90;;;21.60;29.60;;;;;;5051001;28;20932;-64
2021/04/17 08:07:18;;;;;;;3.75;1.80;;;21.60;29.50;;;;;;5051255;28;20459;-64
2021/04/17 08:09:44;;;;;;;3.30;1.80;;;21.60;29.50;;;;;;5051167;28;20754;-64
2021/04/17 08:12:11;;;;;;;3.92;1.80;;;21.60;29.50;;;;;;5051169;28;20386;-65
2021/04/17 08:14:37;;;;;;;3.95;1.80;;;21.60;29.90;;;;;;5051146;28;20436;-65
2021/04/17 08:17:03;;;;;;;3.80;2.10;;;21.60;29.40;;;;;;5050607;28;20865;-61
2021/04/17 08:19:29;;;;;;;3.57;1.80;;;21.70;29.40;;;;;;5051126;28;20389;-65
2021/04/17 08:21:54;;;;;;;4.03;1.70;;;21.70;29.40;;;;;;5051203;28;20869;-64
2021/04/17 08:24:27;;;;;;;4.88;1.75;;;21.70;29.40;;;;;;5050325;28;20865;-64
2021/04/17 08:26:55;;;;;;;2.60;1.63;;;21.70;29.40;;;;;;5050310;28;20412;-65
2021/04/17 08:29:45;;;;;;;4.07;1.50;;;21.70;29.40;;;;;;5051046;28;20877;-65
2021/04/17 08:32:38;;;;;;;2.72;1.60;;;21.70;29.40;;;;;;5051631;28;20408;-65
2021/04/17 08:35:17;;;;;;;2.78;1.50;;;21.70;29.50;;;;;;5054591;28;20412;-65
2021/04/17 08:37:52;;;;;;;2.38;1.60;;;21.70;29.50;;;;;;5045861;28;20420;-59
2021/04/17 08:40:37;;;;;;;2.90;1.50;;;21.70;29.50;;;;;;5035043;28;20441;-65
2021/04/17 08:43:03;;;;;;;2.78;1.52;;;21.80;29.50;;;;;;5034146;28;20395;-63
2021/04/17 08:45:30;;;;;;;2.65;1.67;;;21.80;29.50;;;;;;5033333;28;20510;-64
2021/04/17 08:47:58;;;;;;;2.97;1.83;;;21.80;29.40;;;;;;5034731;28;20445;-65
2021/04/17 08:50:31;;;;;;;2.88;1.60;;;21.80;29.40;;;;;;5034730;28;20428;-65
2021/04/17 08:53:10;;;;;;;3.10;1.77;;;21.80;29.40;;;;;;5034097;28;20486;-64
2021/04/17 08:55:35;;;;;;;4.22;1.85;;;21.80;29.40;;;;;;5034621;28;20410;-65
2021/04/17 08:58:13;;;;;;;4.38;2.05;;;21.80;29.50;;;;;;5034433;28;20871;-65
2021/04/17 09:00:40;;;;;;;4.53;2.00;;;21.80;29.40;;;;;;5034133;28;20514;-65
2021/04/17 09:03:06;;;;;;;4.90;2.00;;;21.90;29.30;;;;;;5032491;28;20391;-65
2021/04/17 09:05:47;;;;;;;3.70;1.90;;;21.90;29.30;;;;;;5034460;28;20983;-65
2021/04/17 09:08:14;;;;;;;3.70;1.83;;;21.90;29.20;;;;;;5034306;28;20863;-64
2021/04/17 09:10:43;;;;;;;4.50;1.92;;;22.00;29.20;;;;;;5034342;28;20482;-62
2021/04/17 09:13:09;;;;;;;4.20;1.80;;;21.90;29.40;;;;;;5033695;28;20917;-65
2021/04/17 09:15:54;;;;;;;3.28;1.90;;;22.00;29.10;;;;;;5034168;28;20950;-63
2021/04/17 09:18:49;;;;;;;3.22;1.83;;;22.00;29.00;;;;;;5034110;28;20383;-65
2021/04/17 09:21:35;;;;;;;3.05;1.73;;;22.10;29.10;;;;;;5029242;28;20546;-64
2021/04/17 09:24:02;;;;;;;2.93;1.70;;;22.10;29.10;;;;;;5033455;28;20759;-65
2021/04/17 09:26:31;;;;;;;3.55;2.00;;;22.10;29.10;;;;;;5034029;28;20391;-65
2021/04/17 09:29:13;;;;;;;2.83;1.80;;;22.10;29.10;;;;;;5033509;28;20433;-64
2021/04/17 09:31:39;;;;;;;2.70;1.80;;;22.20;29.00;;;;;;5033966;28;20392;-65
2021/04/17 09:34:15;;;;;;;2.83;1.80;;;22.20;29.00;;;;;;5032626;28;20796;-65
2021/04/17 09:36:42;;;;;;;2.77;1.60;;;22.20;29.00;;;;;;5033945;28;20438;-64
2021/04/17 09:39:31;;;;;;;3.10;1.77;;;22.20;29.00;;;;;;5032875;28;20863;-64
2021/04/17 09:41:59;;;;;;;3.17;1.70;;;22.20;28.90;;;;;;5032875;28;21002;-63
2021/04/17 09:44:40;;;;;;;2.30;1.50;;;22.20;28.90;;;;;;5033759;28;20387;-64
2021/04/17 09:47:11;;;;;;;2.40;1.60;;;22.20;28.80;;;;;;5033056;28;20425;-65
2021/04/17 09:49:39;;;;;;;3.03;1.70;;;22.20;28.80;;;;;;5033684;28;20415;-64
2021/04/17 09:52:06;;;;;;;2.65;1.50;;;22.20;28.80;;;;;;5033365;28;20391;-65
2021/04/17 09:54:32;;;;;;;3.65;1.80;;;22.30;28.90;;;;;;5033508;28;20518;-65
2021/04/17 09:57:08;;;;;;;2.45;1.58;;;22.30;28.90;;;;;;5032807;28;20391;-64
2021/04/17 09:59:34;;;;;;;2.40;1.40;;;22.20;28.80;;;;;;5033217;28;20383;-65
2021/04/17 10:02:00;;;;;;;2.72;1.20;;;22.20;29.20;;;;;;5033161;28;20427;-65
2021/04/17 10:04:58;;;;;;;6.35;2.10;;;22.10;29.60;;;;;;5033145;28;20462;-65
2021/04/17 10:07:24;;;;;;;4.32;1.60;;;22.20;31.10;;;;;;5032989;28;20415;-64
2021/04/17 10:10:08;;;;;;;5.40;1.90;;;22.30;30.00;;;;;;5032931;28;20379;-65
2021/04/17 10:12:46;;;;;;;4.68;1.70;;;22.30;30.00;;;;;;5033862;28;20486;-63
2021/04/17 10:15:21;;;;;;;4.15;1.92;;;22.20;29.60;;;;;;5052337;28;20432;-64
2021/04/17 10:17:49;;;;;;;5.50;1.70;;;22.30;30.00;;;;;;5050744;28;20409;-63
2021/04/17 10:20:16;;;;;;;4.75;1.50;;;22.30;30.70;;;;;;5049339;28;20386;-65
2021/04/17 10:22:52;;;;;;;3.50;1.37;;;22.30;30.50;;;;;;5049702;28;20445;-61
2021/04/17 10:25:35;;;;;;;4.22;1.60;;;22.30;30.50;;;;;;5043358;28;21230;-63
2021/04/17 10:28:20;;;;;;;4.53;1.30;;;22.30;30.20;;;;;;5051824;28;20401;-65
2021/04/17 10:30:54;;;;;;;4.38;1.60;;;22.30;30.20;;;;;;5051655;28;20381;-65
2021/04/17 10:33:22;;;;;;;3.90;1.80;;;22.30;29.80;;;;;;5052184;28;20415;-65
2021/04/17 10:35:49;;;;;;;4.13;1.65;;;22.30;29.80;;;;;;5052007;28;20374;-65
2021/04/17 10:38:29;;;;;;;3.30;1.90;;;22.30;30.00;;;;;;5050925;28;20428;-64
2021/04/17 10:40:57;;;;;;;3.20;1.63;;;22.50;30.00;;;;;;5051731;28;20786;-65
2021/04/17 10:43:23;;;;;;;3.20;1.80;;;22.50;30.20;;;;;;5052335;28;20377;-64
2021/04/17 10:45:53;;;;;;;4.68;1.77;;;22.50;30.30;;;;;;5052478;28;20456;-65
2021/04/17 10:48:24;;;;;;;3.70;1.40;;;22.50;30.30;;;;;;5052449;28;20381;-65
2021/04/17 10:50:54;;;;;;;5.22;1.60;;;22.40;30.20;;;;;;5052261;28;20400;-64
2021/04/17 10:53:35;;;;;;;3.10;1.38;;;22.40;29.90;;;;;;5052124;28;20492;-64
2021/04/17 10:56:22;;;;;;;3.17;1.40;;;22.40;30.10;;;;;;5052135;28;20461;-64
2021/04/17 10:59:08;;;;;;;2.78;1.45;;;22.40;29.80;;;;;;5042009;28;20820;-64
2021/04/17 11:01:38;;;;;;;4.53;1.40;;;22.30;29.90;;;;;;5051739;28;20413;-65
2021/04/17 11:04:04;;;;;;;2.25;1.27;;;22.30;29.60;;;;;;5052061;28;20400;-64
2021/04/17 11:06:34;;;;;;;3.50;1.40;;;22.30;29.40;;;;;;5052180;28;20444;-65
2021/04/17 11:09:10;;;;;;;3.05;1.48;;;22.30;29.40;;;;;;5051649;28;20394;-64
2021/04/17 11:11:37;;;;;;;2.80;1.20;;;22.30;29.40;;;;;;5050101;28;20405;-59
2021/04/17 11:14:05;;;;;;;2.83;1.10;;;22.30;29.20;;;;;;5050173;28;20439;-59
2021/04/17 11:16:47;;;;;;;4.63;1.55;;;22.30;29.40;;;;;;5050291;28;20392;-60
2021/04/17 11:19:42;;;;;;;3.00;1.52;;;22.30;29.40;;;;;;5049177;28;20404;-60
2021/04/17 11:22:21;;;;;;;5.07;1.58;;;22.30;29.40;;;;;;5044971;28;20436;-59
2021/04/17 11:24:58;;;;;;;3.58;1.48;;;22.30;29.40;;;;;;5051628;28;20397;-59
2021/04/17 11:27:26;;;;;;;4.85;1.45;;;22.30;29.40;;;;;;5051096;28;20819;-59
2021/04/17 11:29:52;;;;;;;5.60;1.70;;;22.30;29.90;;;;;;5051286;28;20385;-60
2021/04/17 11:32:17;;;;;;;6.18;2.05;;;22.30;29.50;;;;;;5051664;28;20431;-61
2021/04/17 11:34:44;;;;;;;9.35;2.17;;;22.20;29.40;;;;;;5051533;28;20405;-59
2021/04/17 11:37:10;;;;;;;9.77;1.73;;;22.20;29.30;;;;;;5050669;28;20456;-59
2021/04/17 11:39:36;;;;;;;5.65;2.08;;;22.30;29.30;;;;;;5051485;28;20429;-59
2021/04/17 11:42:02;;;;;;;7.90;2.07;;;22.20;30.50;;;;;;5050445;28;20412;-59
2021/04/17 11:44:27;;;;;;;9.25;1.98;;;22.20;30.20;;;;;;5051072;28;20394;-59
2021/04/17 11:46:53;;;;;;;5.00;1.73;;;22.20;30.50;;;;;;5051138;28;20469;-60
2021/04/17 11:49:19;;;;;;;6.03;1.67;;;22.20;29.80;;;;;;5049602;28;20389;-62
2021/04/17 11:51:44;;;;;;;8.80;1.90;;;22.20;30.30;;;;;;5050863;28;20477;-60
2021/04/17 11:54:10;;;;;;;9.88;2.58;;;22.20;30.40;;;;;;5051319;28;20711;-59
2021/04/17 11:56:36;;;;;;;14.47;9.90;;;22.20;29.60;;;;;;5051221;28;20382;-61
2021/04/17 11:59:02;;;;;;;70.32;55.65;;;22.20;29.20;;;;;;5050589;28;20479;-62
2021/04/17 12:01:28;;;;;;;116.43;87.95;;;22.20;29.70;;;;;;5050495;28;20417;-60
2021/04/17 12:03:53;;;;;;;246.45;146.10;;;22.10;30.00;;;;;;5050886;28;20443;-59
2021/04/17 12:06:23;;;;;;;425.73;255.27;;;22.10;30.00;;;;;;5053074;28;20480;-59
2021/04/17 12:08:48;;;;;;;205.98;116.82;;;22.10;30.10;;;;;;5055111;28;20442;-59
2021/04/17 12:11:14;;;;;;;333.20;193.23;;;22.10;30.80;;;;;;5054476;28;20389;-59
2021/04/17 12:13:40;;;;;;;348.42;205.50;;;22.20;30.60;;;;;;5054666;28;20933;-64
2021/04/17 12:16:06;;;;;;;334.97;198.10;;;22.20;30.20;;;;;;5054914;28;20400;-62
2021/04/17 12:18:31;;;;;;;307.27;178.73;;;22.30;30.00;;;;;;5055029;28;20393;-64
2021/04/17 12:20:57;;;;;;;294.63;169.03;;;22.40;29.80;;;;;;5054237;28;20773;-60
2021/04/17 12:23:22;;;;;;;266.67;155.32;;;22.50;29.70;;;;;;5054337;28;20381;-59
2021/04/17 12:25:48;;;;;;;230.73;135.43;;;22.60;29.60;;;;;;5054825;28;20901;-61
2021/04/17 12:28:14;;;;;;;214.82;124.88;;;22.70;29.40;;;;;;5054297;28;20931;-64
2021/04/17 12:30:40;;;;;;;205.47;122.70;;;22.70;29.20;;;;;;5054265;28;20813;-59
2021/04/17 12:33:09;;;;;;;185.85;111.93;;;22.90;29.00;;;;;;5054045;28;20446;-60
2021/04/17 12:35:36;;;;;;;181.05;110.25;;;22.90;28.80;;;;;;5054862;28;20431;-59
2021/04/17 12:38:02;;;;;;;176.82;105.28;;;23.00;28.70;;;;;;5054738;28;20484;-60
2021/04/17 12:40:28;;;;;;;155.03;95.87;;;23.10;28.40;;;;;;5054734;28;20488;-59
2021/04/17 12:42:53;;;;;;;152.82;92.32;;;23.10;28.40;;;;;;5054418;28;20444;-60
2021/04/17 12:45:21;;;;;;;140.03;87.60;;;23.20;28.30;;;;;;5053844;28;20397;-60
2021/04/17 12:47:46;;;;;;;142.93;86.00;;;23.30;28.30;;;;;;5054721;28;20504;-60
2021/04/17 12:50:12;;;;;;;133.30;80.25;;;23.30;28.40;;;;;;5054678;28;20461;-60
2021/04/17 12:52:40;;;;;;;133.02;78.90;;;23.40;28.70;;;;;;5053823;28;20890;-59